PAA1 VHHX-VTBD
Flight info
| Callsign | PAA1 |
|---|---|
| Flight time | 2h 27m |
| Altitude | 43000 |
| Route | SIKOU/K0882S1310 A202 ASSAD/K0882F430 A202 VILAO/N0475F430 A202 RAMEI Y20 UBLOD W1 BKK |
| Aircraft | B742/H-SDFHIRWXY/L |
Departure
| Time | 2026-04-29 18:43 |
|---|---|
| Airport | Hong Kong International Airport Kai Tak (VHHX) |
Arrival
| Time | 2026-04-29 21:10 |
|---|---|
| Airport | Don Mueang International Airport (VTBD) |
| Time | Latitude | Longitude | Altitude | Speed | Heading |
|---|---|---|---|---|---|
| 2026-04-29 17:38 | 22.32647 | 114.19348 | 35 ft | 0 kts | 313° |
| 2026-04-29 18:32 | 22.32647 | 114.19349 | 34 ft | 0 kts | 313° |
| 2026-04-29 18:32 | 22.32638 | 114.19360 | 34 ft | 2 kts | 304° |
| 2026-04-29 18:33 | 22.32630 | 114.19374 | 34 ft | 2 kts | 295° |
| 2026-04-29 18:33 | 22.32625 | 114.19389 | 34 ft | 2 kts | 287° |
| 2026-04-29 18:33 | 22.32621 | 114.19405 | 34 ft | 2 kts | 278° |
| 2026-04-29 18:33 | 22.32620 | 114.19421 | 34 ft | 2 kts | 269° |
| 2026-04-29 18:34 | 22.32621 | 114.19436 | 34 ft | 2 kts | 261° |
| 2026-04-29 18:34 | 22.32623 | 114.19447 | 34 ft | 2 kts | 255° |
| 2026-04-29 18:34 | 22.32630 | 114.19467 | 34 ft | 2 kts | 243° |
| 2026-04-29 18:34 | 22.32638 | 114.19481 | 34 ft | 2 kts | 234° |
| 2026-04-29 18:35 | 22.32647 | 114.19493 | 34 ft | 2 kts | 226° |
| 2026-04-29 18:35 | 22.32658 | 114.19504 | 34 ft | 2 kts | 221° |
| 2026-04-29 18:35 | 22.32669 | 114.19515 | 34 ft | 2 kts | 222° |
| 2026-04-29 18:35 | 22.32681 | 114.19526 | 34 ft | 2 kts | 222° |
| 2026-04-29 18:36 | 22.32692 | 114.19537 | 34 ft | 2 kts | 222° |
| 2026-04-29 18:36 | 22.32702 | 114.19547 | 34 ft | 0 kts | 222° |
| 2026-04-29 18:36 | 22.32702 | 114.19548 | 34 ft | 0 kts | 222° |
| 2026-04-29 18:40 | 22.32697 | 114.19543 | 34 ft | 3 kts | 222° |
| 2026-04-29 18:40 | 22.32670 | 114.19517 | 34 ft | 5 kts | 223° |
| 2026-04-29 18:40 | 22.32641 | 114.19487 | 34 ft | 5 kts | 223° |
| 2026-04-29 18:40 | 22.32612 | 114.19457 | 34 ft | 5 kts | 224° |
| 2026-04-29 18:41 | 22.32464 | 114.19338 | 34 ft | 7 kts | 161° |
| 2026-04-29 18:41 | 22.32421 | 114.19374 | 34 ft | 7 kts | 139° |
| 2026-04-29 18:42 | 22.32415 | 114.19379 | 34 ft | 0 kts | 136° |
| 2026-04-29 18:42 | 22.32390 | 114.19406 | 34 ft | 25 kts | 135° |
| 2026-04-29 18:42 | 22.32086 | 114.19751 | 34 ft | 99 kts | 135° |
| 2026-04-29 18:42 | 22.31439 | 114.20464 | 36 ft | 163 kts | 134° |
| 2026-04-29 18:43 | 22.30578 | 114.21388 | 463 ft | 178 kts | 131° |
| 2026-04-29 18:43 | 22.29728 | 114.22290 | 1250 ft | 174 kts | 138° |
| 2026-04-29 18:43 | 22.28672 | 114.22965 | 1877 ft | 180 kts | 154° |
| 2026-04-29 18:43 | 22.27586 | 114.23656 | 2450 ft | 185 kts | 140° |
| 2026-04-29 18:44 | 22.26519 | 114.24379 | 2797 ft | 183 kts | 147° |
| 2026-04-29 18:44 | 22.25448 | 114.25140 | 2985 ft | 184 kts | 127° |
| 2026-04-29 18:44 | 22.24539 | 114.26151 | 3166 ft | 191 kts | 131° |
| 2026-04-29 18:44 | 22.23579 | 114.27217 | 3292 ft | 203 kts | 131° |
| 2026-04-29 18:45 | 22.22572 | 114.28360 | 3375 ft | 219 kts | 131° |
| 2026-04-29 18:45 | 22.21482 | 114.29604 | 3467 ft | 237 kts | 131° |
| 2026-04-29 18:45 | 22.20306 | 114.30953 | 3553 ft | 257 kts | 131° |
| 2026-04-29 18:45 | 22.19016 | 114.32446 | 3709 ft | 279 kts | 131° |
| 2026-04-29 18:46 | 22.17712 | 114.33974 | 4517 ft | 279 kts | 132° |
| 2026-04-29 18:46 | 22.16425 | 114.35541 | 5270 ft | 282 kts | 132° |
| 2026-04-29 18:46 | 22.15150 | 114.37152 | 5989 ft | 285 kts | 132° |
| 2026-04-29 18:46 | 22.13879 | 114.38809 | 6689 ft | 289 kts | 131° |
| 2026-04-29 18:47 | 22.12620 | 114.40484 | 7405 ft | 292 kts | 131° |
| 2026-04-29 18:47 | 22.11171 | 114.42002 | 8042 ft | 290 kts | 154° |
| 2026-04-29 18:47 | 22.09304 | 114.42609 | 8713 ft | 282 kts | 183° |
| 2026-04-29 18:47 | 22.07437 | 114.42166 | 9410 ft | 275 kts | 211° |
| 2026-04-29 18:48 | 22.05984 | 114.40855 | 10105 ft | 273 kts | 229° |
| 2026-04-29 18:48 | 22.04723 | 114.39303 | 10740 ft | 278 kts | 231° |
| 2026-04-29 18:48 | 22.03444 | 114.37682 | 11041 ft | 295 kts | 231° |
| 2026-04-29 18:48 | 22.02055 | 114.35922 | 11286 ft | 316 kts | 231° |
| 2026-04-29 18:49 | 22.00601 | 114.34075 | 11529 ft | 336 kts | 231° |
| 2026-04-29 18:49 | 21.99056 | 114.32112 | 12096 ft | 345 kts | 231° |
| 2026-04-29 18:49 | 21.97507 | 114.30154 | 12912 ft | 346 kts | 232° |
| 2026-04-29 18:49 | 21.95909 | 114.28141 | 13301 ft | 360 kts | 232° |
| 2026-04-29 18:50 | 21.94245 | 114.26047 | 13656 ft | 375 kts | 231° |
| 2026-04-29 18:50 | 21.92524 | 114.23873 | 13884 ft | 393 kts | 231° |
| 2026-04-29 18:50 | 21.90696 | 114.21553 | 13952 ft | 414 kts | 232° |
| 2026-04-29 18:50 | 21.88797 | 114.19137 | 14216 ft | 426 kts | 232° |
| 2026-04-29 18:51 | 21.86940 | 114.16779 | 14486 ft | 398 kts | 232° |
| 2026-04-29 18:51 | 21.85216 | 114.14600 | 14653 ft | 373 kts | 232° |
| 2026-04-29 18:51 | 21.83557 | 114.12508 | 14739 ft | 358 kts | 232° |
| 2026-04-29 18:51 | 21.81934 | 114.10464 | 14663 ft | 359 kts | 232° |
| 2026-04-29 18:52 | 21.80316 | 114.08427 | 14579 ft | 358 kts | 232° |
| 2026-04-29 18:52 | 21.78700 | 114.06393 | 14492 ft | 355 kts | 232° |
| 2026-04-29 18:52 | 21.77094 | 114.04366 | 14357 ft | 357 kts | 232° |
| 2026-04-29 18:52 | 21.75481 | 114.02331 | 14155 ft | 355 kts | 232° |
| 2026-04-29 18:53 | 21.73883 | 114.00320 | 14011 ft | 351 kts | 232° |
| 2026-04-29 18:53 | 21.72286 | 113.98312 | 13973 ft | 346 kts | 232° |
| 2026-04-29 18:53 | 21.70680 | 113.96295 | 13965 ft | 345 kts | 232° |
| 2026-04-29 18:53 | 21.69061 | 113.94264 | 13967 ft | 346 kts | 232° |
| 2026-04-29 18:54 | 21.67435 | 113.92240 | 13955 ft | 347 kts | 229° |
| 2026-04-29 18:54 | 21.65473 | 113.90559 | 13959 ft | 354 kts | 213° |
| 2026-04-29 18:54 | 21.63074 | 113.89545 | 13956 ft | 360 kts | 197° |
| 2026-04-29 18:54 | 21.60542 | 113.89311 | 13958 ft | 367 kts | 180° |
| 2026-04-29 18:55 | 21.57921 | 113.89868 | 13958 ft | 374 kts | 164° |
| 2026-04-29 18:55 | 21.55444 | 113.90987 | 13979 ft | 380 kts | 163° |
| 2026-04-29 18:55 | 21.52781 | 113.91591 | 14672 ft | 376 kts | 180° |
| 2026-04-29 18:55 | 21.50051 | 113.91605 | 15494 ft | 373 kts | 186° |
| 2026-04-29 18:56 | 21.47357 | 113.91453 | 16202 ft | 375 kts | 187° |
| 2026-04-29 18:56 | 21.44572 | 113.91202 | 16887 ft | 379 kts | 189° |
| 2026-04-29 18:56 | 21.41768 | 113.90881 | 17575 ft | 382 kts | 189° |
| 2026-04-29 18:56 | 21.38925 | 113.90515 | 18231 ft | 386 kts | 190° |
| 2026-04-29 18:57 | 21.36053 | 113.90121 | 18892 ft | 390 kts | 190° |
| 2026-04-29 18:57 | 21.33183 | 113.89714 | 19511 ft | 394 kts | 191° |
| 2026-04-29 18:57 | 21.30269 | 113.89292 | 20161 ft | 398 kts | 191° |
| 2026-04-29 18:57 | 21.27292 | 113.88857 | 20795 ft | 401 kts | 191° |
| 2026-04-29 18:58 | 21.24355 | 113.88425 | 21359 ft | 406 kts | 191° |
| 2026-04-29 18:58 | 21.21301 | 113.87973 | 21946 ft | 409 kts | 191° |
| 2026-04-29 18:58 | 21.18299 | 113.87528 | 22497 ft | 413 kts | 191° |
| 2026-04-29 18:58 | 21.15264 | 113.87079 | 23040 ft | 417 kts | 191° |
| 2026-04-29 18:59 | 21.12205 | 113.86626 | 23630 ft | 419 kts | 191° |
| 2026-04-29 18:59 | 21.09126 | 113.86169 | 24176 ft | 422 kts | 191° |
| 2026-04-29 18:59 | 21.06018 | 113.85708 | 24741 ft | 425 kts | 191° |
| 2026-04-29 18:59 | 21.02879 | 113.85242 | 25282 ft | 428 kts | 191° |
| 2026-04-29 19:00 | 20.99773 | 113.84781 | 25791 ft | 431 kts | 191° |
| 2026-04-29 19:00 | 20.96569 | 113.84306 | 26284 ft | 435 kts | 191° |
| 2026-04-29 19:00 | 20.93363 | 113.83831 | 26823 ft | 437 kts | 191° |
| 2026-04-29 19:00 | 20.90202 | 113.83363 | 27344 ft | 439 kts | 191° |
| 2026-04-29 19:01 | 20.87031 | 113.82893 | 27811 ft | 442 kts | 191° |
| 2026-04-29 19:01 | 20.83837 | 113.82419 | 28266 ft | 444 kts | 191° |
| 2026-04-29 19:01 | 20.80649 | 113.81946 | 28703 ft | 446 kts | 191° |
| 2026-04-29 19:01 | 20.77398 | 113.81464 | 29091 ft | 450 kts | 191° |
| 2026-04-29 19:02 | 20.74176 | 113.80987 | 29499 ft | 452 kts | 191° |
| 2026-04-29 19:02 | 20.72047 | 113.80671 | 29766 ft | 454 kts | 191° |
| 2026-04-29 19:02 | 20.67729 | 113.80032 | 30291 ft | 457 kts | 191° |
| 2026-04-29 19:02 | 20.64506 | 113.79555 | 30697 ft | 458 kts | 191° |
| 2026-04-29 19:03 | 20.61290 | 113.79079 | 31066 ft | 460 kts | 191° |
| 2026-04-29 19:03 | 20.57991 | 113.78591 | 31409 ft | 463 kts | 191° |
| 2026-04-29 19:03 | 20.54675 | 113.78101 | 31803 ft | 465 kts | 191° |
| 2026-04-29 19:03 | 20.51373 | 113.77613 | 32175 ft | 467 kts | 191° |
| 2026-04-29 19:04 | 20.48063 | 113.77124 | 32520 ft | 469 kts | 191° |
| 2026-04-29 19:04 | 20.44735 | 113.76632 | 32866 ft | 472 kts | 191° |
| 2026-04-29 19:04 | 20.41436 | 113.76145 | 33221 ft | 474 kts | 191° |
| 2026-04-29 19:04 | 20.38184 | 113.75665 | 33601 ft | 475 kts | 191° |
| 2026-04-29 19:05 | 20.34886 | 113.75178 | 34018 ft | 475 kts | 191° |
| 2026-04-29 19:05 | 20.31633 | 113.74699 | 34546 ft | 473 kts | 191° |
| 2026-04-29 19:05 | 20.28341 | 113.74215 | 35033 ft | 471 kts | 191° |
| 2026-04-29 19:05 | 20.25101 | 113.73738 | 35577 ft | 468 kts | 191° |
| 2026-04-29 19:06 | 20.21890 | 113.73267 | 35999 ft | 467 kts | 192° |
| 2026-04-29 19:06 | 20.18656 | 113.72790 | 36343 ft | 467 kts | 191° |
| 2026-04-29 19:06 | 20.12226 | 113.71843 | 37101 ft | 466 kts | 192° |
| 2026-04-29 19:07 | 20.08999 | 113.71368 | 37477 ft | 465 kts | 192° |
| 2026-04-29 19:07 | 20.06847 | 113.71052 | 37672 ft | 465 kts | 192° |
| 2026-04-29 19:07 | 20.02657 | 113.70122 | 37981 ft | 460 kts | 203° |
| 2026-04-29 19:07 | 19.99780 | 113.68671 | 38025 ft | 459 kts | 215° |
| 2026-04-29 19:08 | 19.97284 | 113.66591 | 38030 ft | 457 kts | 226° |
| 2026-04-29 19:08 | 19.95301 | 113.64002 | 38027 ft | 447 kts | 238° |
| 2026-04-29 19:08 | 19.93965 | 113.61095 | 38027 ft | 435 kts | 251° |
| 2026-04-29 19:08 | 19.93310 | 113.57948 | 38021 ft | 437 kts | 263° |
| 2026-04-29 19:09 | 19.93360 | 113.54739 | 38025 ft | 445 kts | 275° |
| 2026-04-29 19:09 | 19.94120 | 113.51511 | 38027 ft | 456 kts | 288° |
| 2026-04-29 19:09 | 19.95518 | 113.48439 | 38034 ft | 465 kts | 295° |
| 2026-04-29 19:10 | 19.98776 | 113.42500 | 38028 ft | 467 kts | 295° |
| 2026-04-29 19:10 | 20.01804 | 113.36492 | 38026 ft | 456 kts | 293° |
| 2026-04-29 19:11 | 20.04634 | 113.30393 | 38032 ft | 462 kts | 292° |
| 2026-04-29 19:11 | 20.07413 | 113.24242 | 38034 ft | 462 kts | 292° |
| 2026-04-29 19:12 | 20.10176 | 113.18100 | 38036 ft | 459 kts | 291° |
| 2026-04-29 19:12 | 20.12933 | 113.11960 | 38045 ft | 462 kts | 292° |
| 2026-04-29 19:13 | 20.15698 | 113.05798 | 38039 ft | 463 kts | 292° |
| 2026-04-29 19:13 | 20.18472 | 112.99612 | 38045 ft | 463 kts | 292° |
| 2026-04-29 19:14 | 20.21258 | 112.93390 | 38041 ft | 464 kts | 292° |
| 2026-04-29 19:14 | 20.24032 | 112.87191 | 38047 ft | 463 kts | 292° |
| 2026-04-29 19:15 | 20.26793 | 112.81015 | 38046 ft | 462 kts | 292° |
| 2026-04-29 19:15 | 20.29555 | 112.74826 | 38050 ft | 462 kts | 292° |
| 2026-04-29 19:16 | 20.32310 | 112.68647 | 38047 ft | 463 kts | 292° |
| 2026-04-29 19:16 | 20.35081 | 112.62422 | 38053 ft | 465 kts | 292° |
| 2026-04-29 19:17 | 20.37845 | 112.56212 | 38048 ft | 464 kts | 292° |
| 2026-04-29 19:17 | 20.40606 | 112.49998 | 38049 ft | 465 kts | 293° |
| 2026-04-29 19:18 | 20.43362 | 112.43785 | 38052 ft | 466 kts | 293° |
| 2026-04-29 19:18 | 20.46130 | 112.37542 | 38056 ft | 466 kts | 293° |
| 2026-04-29 19:19 | 20.48913 | 112.31258 | 38048 ft | 466 kts | 293° |
| 2026-04-29 19:19 | 20.51716 | 112.24919 | 38047 ft | 466 kts | 293° |
| 2026-04-29 19:20 | 20.54521 | 112.18570 | 38049 ft | 466 kts | 293° |
| 2026-04-29 19:20 | 20.57289 | 112.12293 | 38054 ft | 468 kts | 293° |
| 2026-04-29 19:21 | 20.60042 | 112.06049 | 38050 ft | 465 kts | 293° |
| 2026-04-29 19:21 | 20.62800 | 111.99783 | 38053 ft | 466 kts | 293° |
| 2026-04-29 19:22 | 20.65575 | 111.93469 | 38055 ft | 467 kts | 293° |
| 2026-04-29 19:22 | 20.68314 | 111.87233 | 38055 ft | 465 kts | 293° |
| 2026-04-29 19:23 | 20.71071 | 111.80948 | 38057 ft | 468 kts | 293° |
| 2026-04-29 19:23 | 20.73818 | 111.74676 | 38056 ft | 468 kts | 293° |
| 2026-04-29 19:24 | 20.76562 | 111.68407 | 38061 ft | 465 kts | 293° |
| 2026-04-29 19:24 | 20.79311 | 111.62116 | 38059 ft | 467 kts | 293° |
| 2026-04-29 19:25 | 20.81750 | 111.55763 | 38062 ft | 462 kts | 281° |
| 2026-04-29 19:25 | 20.82131 | 111.52358 | 38058 ft | 460 kts | 269° |
| 2026-04-29 19:25 | 20.81792 | 111.48979 | 38062 ft | 461 kts | 257° |
| 2026-04-29 19:26 | 20.79328 | 111.42656 | 38055 ft | 464 kts | 241° |
| 2026-04-29 19:26 | 20.75883 | 111.36826 | 38054 ft | 463 kts | 237° |
| 2026-04-29 19:27 | 20.72220 | 111.31095 | 38064 ft | 465 kts | 236° |
| 2026-04-29 19:27 | 20.68536 | 111.25355 | 38059 ft | 465 kts | 237° |
| 2026-04-29 19:28 | 20.64850 | 111.19590 | 38058 ft | 463 kts | 237° |
| 2026-04-29 19:28 | 20.61226 | 111.13912 | 38059 ft | 466 kts | 237° |
| 2026-04-29 19:29 | 20.57584 | 111.08212 | 38062 ft | 463 kts | 237° |
| 2026-04-29 19:29 | 20.53957 | 111.02539 | 38057 ft | 462 kts | 237° |
| 2026-04-29 19:30 | 20.50332 | 110.96874 | 38052 ft | 466 kts | 237° |
| 2026-04-29 19:30 | 20.46689 | 110.91188 | 38053 ft | 464 kts | 237° |
| 2026-04-29 19:31 | 20.43058 | 110.85527 | 38060 ft | 463 kts | 237° |
| 2026-04-29 19:31 | 20.39399 | 110.79826 | 38063 ft | 466 kts | 237° |
| 2026-04-29 19:32 | 20.35756 | 110.74156 | 38063 ft | 465 kts | 237° |
| 2026-04-29 19:32 | 20.32107 | 110.68483 | 38062 ft | 465 kts | 237° |
| 2026-04-29 19:33 | 20.28459 | 110.62818 | 38063 ft | 465 kts | 237° |
| 2026-04-29 19:33 | 20.24811 | 110.57156 | 38064 ft | 465 kts | 237° |
| 2026-04-29 19:34 | 20.21153 | 110.51486 | 38074 ft | 467 kts | 237° |
| 2026-04-29 19:34 | 20.17477 | 110.45792 | 38074 ft | 465 kts | 237° |
| 2026-04-29 19:35 | 20.13817 | 110.40131 | 38076 ft | 466 kts | 237° |
| 2026-04-29 19:35 | 20.10144 | 110.34451 | 38077 ft | 467 kts | 236° |
| 2026-04-29 19:36 | 20.06486 | 110.28803 | 38081 ft | 464 kts | 236° |
| 2026-04-29 19:36 | 20.02810 | 110.23132 | 38083 ft | 467 kts | 236° |
| 2026-04-29 19:37 | 19.99131 | 110.17461 | 38081 ft | 467 kts | 236° |
| 2026-04-29 19:37 | 19.95450 | 110.11793 | 38082 ft | 466 kts | 236° |
| 2026-04-29 19:38 | 19.91754 | 110.06107 | 38080 ft | 468 kts | 236° |
| 2026-04-29 19:38 | 19.88069 | 110.00444 | 38081 ft | 467 kts | 236° |
| 2026-04-29 19:39 | 19.84385 | 109.94787 | 38083 ft | 466 kts | 236° |
| 2026-04-29 19:39 | 19.80666 | 109.89082 | 38085 ft | 468 kts | 236° |
| 2026-04-29 19:40 | 19.76985 | 109.83440 | 38085 ft | 466 kts | 236° |
| 2026-04-29 19:40 | 19.73287 | 109.77778 | 38086 ft | 467 kts | 236° |
| 2026-04-29 19:41 | 19.69594 | 109.72128 | 38088 ft | 468 kts | 236° |
| 2026-04-29 19:41 | 19.65896 | 109.66478 | 38087 ft | 467 kts | 236° |
| 2026-04-29 19:42 | 19.62201 | 109.60835 | 38090 ft | 468 kts | 236° |
| 2026-04-29 19:42 | 19.58471 | 109.55147 | 38089 ft | 467 kts | 236° |
| 2026-04-29 19:43 | 19.54778 | 109.49519 | 38088 ft | 467 kts | 236° |
| 2026-04-29 19:43 | 19.51075 | 109.43881 | 38089 ft | 468 kts | 236° |
| 2026-04-29 19:44 | 19.47354 | 109.38222 | 38087 ft | 467 kts | 236° |
| 2026-04-29 19:44 | 19.43656 | 109.32600 | 38095 ft | 468 kts | 236° |
| 2026-04-29 19:45 | 19.39926 | 109.26939 | 38097 ft | 468 kts | 236° |
| 2026-04-29 19:45 | 19.36219 | 109.21315 | 38105 ft | 468 kts | 236° |
| 2026-04-29 19:46 | 19.32480 | 109.15650 | 38105 ft | 469 kts | 236° |
| 2026-04-29 19:46 | 19.28742 | 109.09990 | 38101 ft | 469 kts | 236° |
| 2026-04-29 19:47 | 19.25030 | 109.04374 | 38097 ft | 468 kts | 236° |
| 2026-04-29 19:47 | 19.21301 | 108.98740 | 38088 ft | 468 kts | 236° |
| 2026-04-29 19:48 | 19.17576 | 108.93116 | 38083 ft | 468 kts | 236° |
| 2026-04-29 19:48 | 19.13852 | 108.87498 | 38081 ft | 467 kts | 236° |
| 2026-04-29 19:49 | 19.10110 | 108.81857 | 38080 ft | 468 kts | 236° |
| 2026-04-29 19:49 | 19.06382 | 108.76244 | 38081 ft | 467 kts | 236° |
| 2026-04-29 19:50 | 19.02663 | 108.70650 | 38075 ft | 468 kts | 236° |
| 2026-04-29 19:50 | 18.98906 | 108.65002 | 38070 ft | 470 kts | 236° |
| 2026-04-29 19:51 | 18.95174 | 108.59399 | 38070 ft | 468 kts | 236° |
| 2026-04-29 19:51 | 18.91412 | 108.53754 | 38068 ft | 469 kts | 236° |
| 2026-04-29 19:52 | 18.87657 | 108.48125 | 38058 ft | 468 kts | 236° |
| 2026-04-29 19:52 | 18.83901 | 108.42500 | 38052 ft | 467 kts | 236° |
| 2026-04-29 19:53 | 18.80143 | 108.36877 | 38054 ft | 470 kts | 236° |
| 2026-04-29 19:53 | 18.76354 | 108.31212 | 38052 ft | 468 kts | 236° |
| 2026-04-29 19:54 | 18.70762 | 108.22862 | 38050 ft | 467 kts | 236° |
| 2026-04-29 19:54 | 18.66984 | 108.17225 | 38051 ft | 469 kts | 236° |
| 2026-04-29 19:55 | 18.63238 | 108.11644 | 38055 ft | 468 kts | 236° |
| 2026-04-29 19:55 | 18.59467 | 108.06029 | 38058 ft | 469 kts | 236° |
| 2026-04-29 19:56 | 18.55722 | 108.00458 | 38051 ft | 468 kts | 236° |
| 2026-04-29 19:56 | 18.51948 | 107.94846 | 38050 ft | 468 kts | 236° |
| 2026-04-29 19:57 | 18.48800 | 107.90171 | 38051 ft | 469 kts | 236° |
| 2026-04-29 19:57 | 18.44417 | 107.83669 | 38053 ft | 466 kts | 236° |
| 2026-04-29 19:58 | 18.40659 | 107.78097 | 38053 ft | 468 kts | 236° |
| 2026-04-29 19:58 | 18.36877 | 107.72496 | 38058 ft | 467 kts | 236° |
| 2026-04-29 19:59 | 18.33214 | 107.66928 | 38058 ft | 466 kts | 239° |
| 2026-04-29 19:59 | 18.29750 | 107.61149 | 38063 ft | 468 kts | 240° |
| 2026-04-29 20:00 | 18.26303 | 107.55334 | 38061 ft | 465 kts | 240° |
| 2026-04-29 20:00 | 18.22865 | 107.49567 | 38065 ft | 467 kts | 240° |
| 2026-04-29 20:01 | 18.19427 | 107.43826 | 38068 ft | 466 kts | 240° |
| 2026-04-29 20:01 | 18.15953 | 107.38037 | 38069 ft | 466 kts | 240° |
| 2026-04-29 20:02 | 18.12493 | 107.32275 | 38067 ft | 466 kts | 239° |
| 2026-04-29 20:02 | 18.09592 | 107.27449 | 37994 ft | 467 kts | 240° |
| 2026-04-29 20:03 | 18.05526 | 107.20689 | 37991 ft | 466 kts | 240° |
| 2026-04-29 20:03 | 18.02028 | 107.14879 | 37994 ft | 467 kts | 240° |
| 2026-04-29 20:04 | 17.98577 | 107.09152 | 37994 ft | 464 kts | 240° |
| 2026-04-29 20:04 | 17.95138 | 107.03450 | 37996 ft | 465 kts | 240° |
| 2026-04-29 20:05 | 17.91659 | 106.97688 | 37996 ft | 466 kts | 240° |
| 2026-04-29 20:05 | 17.88200 | 106.91962 | 37995 ft | 464 kts | 240° |
| 2026-04-29 20:06 | 17.84755 | 106.86267 | 37995 ft | 465 kts | 240° |
| 2026-04-29 20:06 | 17.81279 | 106.80522 | 37996 ft | 465 kts | 240° |
| 2026-04-29 20:07 | 17.77833 | 106.74834 | 37995 ft | 464 kts | 240° |
| 2026-04-29 20:07 | 17.74357 | 106.69101 | 37993 ft | 465 kts | 240° |
| 2026-04-29 20:08 | 17.71469 | 106.64342 | 37992 ft | 464 kts | 240° |
| 2026-04-29 20:08 | 17.67441 | 106.57711 | 37993 ft | 462 kts | 240° |
| 2026-04-29 20:09 | 17.63976 | 106.52010 | 37992 ft | 464 kts | 240° |
| 2026-04-29 20:09 | 17.60513 | 106.46319 | 37988 ft | 463 kts | 240° |
| 2026-04-29 20:10 | 17.57088 | 106.40694 | 37999 ft | 461 kts | 240° |
| 2026-04-29 20:10 | 17.53626 | 106.35013 | 38005 ft | 463 kts | 240° |
| 2026-04-29 20:11 | 17.50164 | 106.29338 | 38012 ft | 462 kts | 240° |
| 2026-04-29 20:11 | 17.46705 | 106.23673 | 38023 ft | 461 kts | 240° |
| 2026-04-29 20:12 | 17.43266 | 106.18044 | 38032 ft | 460 kts | 240° |
| 2026-04-29 20:12 | 17.39801 | 106.12378 | 38028 ft | 461 kts | 240° |
| 2026-04-29 20:13 | 17.36933 | 106.07690 | 38021 ft | 460 kts | 240° |
| 2026-04-29 20:13 | 17.32913 | 106.01129 | 38013 ft | 460 kts | 241° |
| 2026-04-29 20:14 | 17.29484 | 105.95535 | 38003 ft | 460 kts | 240° |
| 2026-04-29 20:14 | 17.26025 | 105.89896 | 37991 ft | 459 kts | 241° |
| 2026-04-29 20:15 | 17.22577 | 105.84283 | 37991 ft | 459 kts | 240° |
| 2026-04-29 20:15 | 17.19137 | 105.78684 | 37982 ft | 456 kts | 240° |
| 2026-04-29 20:16 | 17.15727 | 105.73141 | 37977 ft | 456 kts | 240° |
| 2026-04-29 20:16 | 17.12298 | 105.67570 | 37974 ft | 456 kts | 240° |
| 2026-04-29 20:17 | 17.08866 | 105.61999 | 37969 ft | 456 kts | 241° |
| 2026-04-29 20:17 | 17.05432 | 105.56430 | 37965 ft | 455 kts | 241° |
| 2026-04-29 20:18 | 17.02000 | 105.50867 | 37976 ft | 455 kts | 241° |
| 2026-04-29 20:18 | 16.98588 | 105.45342 | 37958 ft | 454 kts | 241° |
| 2026-04-29 20:19 | 16.95159 | 105.39795 | 37965 ft | 455 kts | 240° |
| 2026-04-29 20:19 | 16.91722 | 105.34238 | 37952 ft | 454 kts | 240° |
| 2026-04-29 20:20 | 16.88317 | 105.28738 | 37947 ft | 456 kts | 240° |
| 2026-04-29 20:20 | 16.84862 | 105.23159 | 37951 ft | 456 kts | 240° |
| 2026-04-29 20:21 | 16.81440 | 105.17644 | 37953 ft | 451 kts | 240° |
| 2026-04-29 20:21 | 16.78019 | 105.12127 | 37949 ft | 456 kts | 240° |
| 2026-04-29 20:22 | 16.74582 | 105.06593 | 37946 ft | 454 kts | 240° |
| 2026-04-29 20:22 | 16.71150 | 105.01072 | 37939 ft | 454 kts | 240° |
| 2026-04-29 20:23 | 16.67712 | 104.95542 | 37939 ft | 457 kts | 240° |
| 2026-04-29 20:23 | 16.64263 | 104.90005 | 37940 ft | 454 kts | 240° |
| 2026-04-29 20:24 | 16.60829 | 104.84494 | 37937 ft | 454 kts | 240° |
| 2026-04-29 20:24 | 16.57383 | 104.78965 | 37935 ft | 455 kts | 240° |
| 2026-04-29 20:25 | 16.53454 | 104.73762 | 37933 ft | 461 kts | 232° |
| 2026-04-29 20:25 | 16.49161 | 104.68798 | 37934 ft | 461 kts | 231° |
| 2026-04-29 20:26 | 16.44867 | 104.63849 | 37937 ft | 458 kts | 231° |
| 2026-04-29 20:26 | 16.40634 | 104.58929 | 37936 ft | 460 kts | 232° |
| 2026-04-29 20:27 | 16.37071 | 104.54771 | 37935 ft | 460 kts | 232° |
| 2026-04-29 20:27 | 16.32125 | 104.49002 | 37937 ft | 458 kts | 232° |
| 2026-04-29 20:28 | 16.27844 | 104.44008 | 37939 ft | 462 kts | 232° |
| 2026-04-29 20:28 | 16.23592 | 104.39054 | 37938 ft | 459 kts | 231° |
| 2026-04-29 20:29 | 16.19323 | 104.34084 | 37941 ft | 462 kts | 231° |
| 2026-04-29 20:29 | 16.15032 | 104.29091 | 37937 ft | 462 kts | 231° |
| 2026-04-29 20:30 | 16.10757 | 104.24122 | 37936 ft | 457 kts | 231° |
| 2026-04-29 20:30 | 16.06490 | 104.19163 | 37936 ft | 463 kts | 231° |
| 2026-04-29 20:31 | 16.02194 | 104.14175 | 37933 ft | 463 kts | 231° |
| 2026-04-29 20:31 | 15.97905 | 104.09199 | 37931 ft | 460 kts | 231° |
| 2026-04-29 20:32 | 15.93650 | 104.04264 | 37929 ft | 461 kts | 231° |
| 2026-04-29 20:32 | 15.89356 | 103.99288 | 37928 ft | 463 kts | 231° |
| 2026-04-29 20:33 | 15.85068 | 103.94325 | 37927 ft | 460 kts | 231° |
| 2026-04-29 20:33 | 15.80769 | 103.89350 | 37920 ft | 461 kts | 231° |
| 2026-04-29 20:34 | 15.76473 | 103.84381 | 37914 ft | 462 kts | 231° |
| 2026-04-29 20:34 | 15.72188 | 103.79430 | 37917 ft | 462 kts | 231° |
| 2026-04-29 20:35 | 15.67898 | 103.74476 | 37916 ft | 463 kts | 231° |
| 2026-04-29 20:35 | 15.63579 | 103.69492 | 37915 ft | 464 kts | 231° |
| 2026-04-29 20:36 | 15.59283 | 103.64540 | 37913 ft | 462 kts | 231° |
| 2026-04-29 20:36 | 15.54993 | 103.59596 | 37912 ft | 463 kts | 231° |
| 2026-04-29 20:37 | 15.50663 | 103.54608 | 37910 ft | 464 kts | 231° |
| 2026-04-29 20:37 | 15.46345 | 103.49641 | 37905 ft | 462 kts | 231° |
| 2026-04-29 20:38 | 15.42052 | 103.44704 | 37903 ft | 464 kts | 231° |
| 2026-04-29 20:38 | 15.37715 | 103.39717 | 37902 ft | 465 kts | 231° |
| 2026-04-29 20:39 | 15.33414 | 103.34779 | 37904 ft | 463 kts | 231° |
| 2026-04-29 20:39 | 15.29078 | 103.29802 | 37905 ft | 466 kts | 231° |
| 2026-04-29 20:40 | 15.24734 | 103.24819 | 37906 ft | 465 kts | 231° |
| 2026-04-29 20:40 | 15.20377 | 103.19827 | 37906 ft | 466 kts | 231° |
| 2026-04-29 20:41 | 15.16039 | 103.14857 | 37905 ft | 466 kts | 231° |
| 2026-04-29 20:41 | 15.11694 | 103.09884 | 37904 ft | 467 kts | 231° |
| 2026-04-29 20:42 | 15.07382 | 103.04904 | 37897 ft | 465 kts | 234° |
| 2026-04-29 20:42 | 15.05662 | 103.02114 | 37901 ft | 460 kts | 246° |
| 2026-04-29 20:42 | 15.04543 | 102.99007 | 37904 ft | 458 kts | 256° |
| 2026-04-29 20:43 | 15.03290 | 102.92593 | 37904 ft | 456 kts | 262° |
| 2026-04-29 20:43 | 15.02371 | 102.86121 | 37933 ft | 455 kts | 263° |
| 2026-04-29 20:44 | 15.01464 | 102.79651 | 37971 ft | 458 kts | 263° |
| 2026-04-29 20:44 | 15.00521 | 102.73116 | 37998 ft | 463 kts | 263° |
| 2026-04-29 20:45 | 14.99558 | 102.66522 | 37875 ft | 469 kts | 263° |
| 2026-04-29 20:45 | 14.98587 | 102.59917 | 37870 ft | 460 kts | 262° |
| 2026-04-29 20:46 | 14.97635 | 102.53458 | 37870 ft | 452 kts | 263° |
| 2026-04-29 20:46 | 14.96678 | 102.46969 | 37872 ft | 461 kts | 263° |
| 2026-04-29 20:47 | 14.95711 | 102.40419 | 37872 ft | 460 kts | 263° |
| 2026-04-29 20:47 | 14.95698 | 102.33934 | 37874 ft | 454 kts | 282° |
| 2026-04-29 20:48 | 14.96705 | 102.30854 | 37871 ft | 457 kts | 294° |
| 2026-04-29 20:48 | 14.98371 | 102.28044 | 37872 ft | 462 kts | 306° |
| 2026-04-29 20:48 | 15.00621 | 102.25653 | 37878 ft | 464 kts | 318° |
| 2026-04-29 20:48 | 15.03328 | 102.23824 | 37878 ft | 467 kts | 330° |
| 2026-04-29 20:49 | 15.06378 | 102.22633 | 37888 ft | 472 kts | 341° |
| 2026-04-29 20:49 | 15.09529 | 102.21713 | 37890 ft | 471 kts | 335° |
| 2026-04-29 20:49 | 15.12436 | 102.20211 | 37894 ft | 468 kts | 323° |
| 2026-04-29 20:49 | 15.14942 | 102.18101 | 37896 ft | 464 kts | 311° |
| 2026-04-29 20:50 | 15.16930 | 102.15478 | 37892 ft | 459 kts | 299° |
| 2026-04-29 20:50 | 15.18279 | 102.12507 | 37892 ft | 456 kts | 287° |
| 2026-04-29 20:50 | 15.18943 | 102.09322 | 37894 ft | 455 kts | 275° |
| 2026-04-29 20:50 | 15.18901 | 102.06086 | 37892 ft | 457 kts | 263° |
| 2026-04-29 20:51 | 15.18148 | 102.02888 | 37894 ft | 459 kts | 251° |
| 2026-04-29 20:51 | 15.16723 | 101.99940 | 37896 ft | 462 kts | 239° |
| 2026-04-29 20:51 | 15.12440 | 101.94902 | 37899 ft | 468 kts | 229° |
| 2026-04-29 20:52 | 15.07945 | 101.90000 | 37441 ft | 474 kts | 231° |
| 2026-04-29 20:52 | 15.05774 | 101.87461 | 36696 ft | 469 kts | 232° |
| 2026-04-29 20:52 | 15.03661 | 101.84898 | 35948 ft | 464 kts | 232° |
| 2026-04-29 20:53 | 15.01612 | 101.82361 | 35209 ft | 459 kts | 233° |
| 2026-04-29 20:53 | 14.99580 | 101.79820 | 34469 ft | 455 kts | 232° |
| 2026-04-29 20:53 | 14.97587 | 101.77317 | 33739 ft | 451 kts | 232° |
| 2026-04-29 20:53 | 14.95607 | 101.74830 | 33011 ft | 447 kts | 232° |
| 2026-04-29 20:54 | 14.91682 | 101.69905 | 31678 ft | 441 kts | 232° |
| 2026-04-29 20:54 | 14.89762 | 101.67497 | 31033 ft | 438 kts | 232° |
| 2026-04-29 20:54 | 14.87826 | 101.65070 | 30381 ft | 435 kts | 232° |
| 2026-04-29 20:55 | 14.85880 | 101.62633 | 29720 ft | 433 kts | 232° |
| 2026-04-29 20:55 | 14.83942 | 101.60206 | 29061 ft | 431 kts | 232° |
| 2026-04-29 20:55 | 14.82005 | 101.57781 | 28411 ft | 429 kts | 232° |
| 2026-04-29 20:55 | 14.80053 | 101.55338 | 27760 ft | 427 kts | 232° |
| 2026-04-29 20:56 | 14.78125 | 101.52924 | 27112 ft | 425 kts | 232° |
| 2026-04-29 20:56 | 14.76193 | 101.50508 | 26465 ft | 422 kts | 232° |
| 2026-04-29 20:56 | 14.74295 | 101.48132 | 25825 ft | 420 kts | 232° |
| 2026-04-29 20:56 | 14.72401 | 101.45765 | 25216 ft | 417 kts | 232° |
| 2026-04-29 20:57 | 14.70530 | 101.43426 | 24631 ft | 414 kts | 231° |
| 2026-04-29 20:57 | 14.68683 | 101.41118 | 24048 ft | 411 kts | 231° |
| 2026-04-29 20:57 | 14.66852 | 101.38831 | 23470 ft | 408 kts | 231° |
| 2026-04-29 20:57 | 14.65044 | 101.36573 | 22901 ft | 405 kts | 231° |
| 2026-04-29 20:58 | 14.63249 | 101.34332 | 22329 ft | 402 kts | 231° |
| 2026-04-29 20:58 | 14.61468 | 101.32111 | 21750 ft | 400 kts | 231° |
| 2026-04-29 20:58 | 14.59684 | 101.29884 | 21147 ft | 399 kts | 231° |
| 2026-04-29 20:58 | 14.57903 | 101.27661 | 20545 ft | 397 kts | 231° |
| 2026-04-29 20:59 | 14.56120 | 101.25431 | 19940 ft | 395 kts | 231° |
| 2026-04-29 20:59 | 14.54349 | 101.23216 | 19332 ft | 393 kts | 229° |
| 2026-04-29 20:59 | 14.52361 | 101.21198 | 18727 ft | 391 kts | 221° |
| 2026-04-29 20:59 | 14.50240 | 101.19421 | 18161 ft | 388 kts | 219° |
| 2026-04-29 21:00 | 14.48136 | 101.17646 | 17596 ft | 385 kts | 220° |
| 2026-04-29 21:00 | 14.46070 | 101.15829 | 17030 ft | 381 kts | 222° |
| 2026-04-29 21:00 | 14.44096 | 101.14017 | 16427 ft | 380 kts | 223° |
| 2026-04-29 21:00 | 14.42148 | 101.12171 | 15795 ft | 380 kts | 223° |
| 2026-04-29 21:01 | 14.40212 | 101.10284 | 15150 ft | 379 kts | 224° |
| 2026-04-29 21:01 | 14.38328 | 101.08410 | 14515 ft | 378 kts | 224° |
| 2026-04-29 21:01 | 14.36564 | 101.06419 | 13875 ft | 376 kts | 229° |
| 2026-04-29 21:01 | 14.34744 | 101.04502 | 13267 ft | 372 kts | 222° |
| 2026-04-29 21:02 | 14.32832 | 101.02729 | 12894 ft | 363 kts | 221° |
| 2026-04-29 21:02 | 14.30959 | 101.00974 | 12530 ft | 355 kts | 222° |
| 2026-04-29 21:02 | 14.29108 | 100.99230 | 12186 ft | 346 kts | 222° |
| 2026-04-29 21:02 | 14.27327 | 100.97560 | 11916 ft | 337 kts | 222° |
| 2026-04-29 21:03 | 14.25543 | 100.95896 | 11635 ft | 328 kts | 222° |
| 2026-04-29 21:03 | 14.23807 | 100.94283 | 11164 ft | 325 kts | 222° |
| 2026-04-29 21:03 | 14.22095 | 100.92689 | 10459 ft | 325 kts | 225° |
| 2026-04-29 21:03 | 14.20682 | 100.90869 | 9785 ft | 324 kts | 237° |
| 2026-04-29 21:04 | 14.19422 | 100.88902 | 9097 ft | 325 kts | 238° |
| 2026-04-29 21:04 | 14.18183 | 100.86917 | 8405 ft | 326 kts | 238° |
| 2026-04-29 21:04 | 14.16958 | 100.84923 | 7714 ft | 326 kts | 238° |
| 2026-04-29 21:04 | 14.15746 | 100.82917 | 7013 ft | 326 kts | 238° |
| 2026-04-29 21:05 | 14.14535 | 100.80885 | 6318 ft | 326 kts | 238° |
| 2026-04-29 21:05 | 14.13372 | 100.78906 | 5627 ft | 318 kts | 238° |
| 2026-04-29 21:05 | 14.12232 | 100.76939 | 4932 ft | 311 kts | 238° |
| 2026-04-29 21:05 | 14.11142 | 100.75045 | 4250 ft | 304 kts | 238° |
| 2026-04-29 21:06 | 14.10050 | 100.73147 | 3547 ft | 298 kts | 238° |
| 2026-04-29 21:06 | 14.09011 | 100.71328 | 3008 ft | 286 kts | 238° |
| 2026-04-29 21:06 | 14.07824 | 100.69816 | 2876 ft | 256 kts | 213° |
| 2026-04-29 21:06 | 14.06353 | 100.68971 | 2829 ft | 230 kts | 208° |
| 2026-04-29 21:07 | 14.04977 | 100.68181 | 2609 ft | 218 kts | 208° |
| 2026-04-29 21:07 | 14.03662 | 100.67429 | 2397 ft | 206 kts | 207° |
| 2026-04-29 21:07 | 14.02443 | 100.66740 | 2152 ft | 193 kts | 207° |
| 2026-04-29 21:07 | 14.01304 | 100.66099 | 1914 ft | 180 kts | 207° |
| 2026-04-29 21:08 | 14.00239 | 100.65502 | 1670 ft | 170 kts | 207° |
| 2026-04-29 21:08 | 13.99221 | 100.64932 | 1419 ft | 162 kts | 207° |
| 2026-04-29 21:08 | 13.98250 | 100.64387 | 1202 ft | 153 kts | 207° |
| 2026-04-29 21:08 | 13.97341 | 100.63879 | 1010 ft | 144 kts | 207° |
| 2026-04-29 21:09 | 13.96492 | 100.63403 | 828 ft | 136 kts | 207° |
| 2026-04-29 21:09 | 13.95677 | 100.62946 | 667 ft | 130 kts | 207° |
| 2026-04-29 21:09 | 13.94868 | 100.62492 | 527 ft | 131 kts | 208° |
| 2026-04-29 21:09 | 13.94078 | 100.62048 | 363 ft | 129 kts | 208° |
| 2026-04-29 21:10 | 13.93273 | 100.61602 | 198 ft | 129 kts | 208° |
| 2026-04-29 21:10 | 13.92492 | 100.61161 | 32 ft | 127 kts | 208° |
| 2026-04-29 21:10 | 13.91822 | 100.60783 | 25 ft | 86 kts | 209° |
| 2026-04-29 21:10 | 13.91432 | 100.60565 | 26 ft | 31 kts | 208° |
| 2026-04-29 21:11 | 13.91239 | 100.60452 | 24 ft | 31 kts | 215° |
| 2026-04-29 21:11 | 13.91118 | 100.60325 | 23 ft | 18 kts | 234° |
| 2026-04-29 21:11 | 13.91100 | 100.60239 | 25 ft | 9 kts | 301° |
| 2026-04-29 21:11 | 13.91149 | 100.60216 | 25 ft | 7 kts | 16° |
| 2026-04-29 21:12 | 13.91194 | 100.60242 | 25 ft | 7 kts | 29° |
| 2026-04-29 21:12 | 13.91241 | 100.60268 | 26 ft | 7 kts | 27° |
| 2026-04-29 21:12 | 13.91289 | 100.60294 | 26 ft | 8 kts | 28° |
| 2026-04-29 21:12 | 13.91347 | 100.60326 | 27 ft | 11 kts | 27° |
| 2026-04-29 21:13 | 13.91425 | 100.60372 | 27 ft | 14 kts | 30° |
| 2026-04-29 21:13 | 13.91528 | 100.60428 | 28 ft | 15 kts | 28° |
| 2026-04-29 21:13 | 13.91632 | 100.60488 | 29 ft | 19 kts | 28° |
| 2026-04-29 21:13 | 13.91734 | 100.60545 | 29 ft | 16 kts | 28° |
| 2026-04-29 21:14 | 13.91825 | 100.60596 | 28 ft | 15 kts | 28° |
| 2026-04-29 21:14 | 13.91919 | 100.60648 | 27 ft | 15 kts | 27° |
| 2026-04-29 21:14 | 13.92017 | 100.60704 | 26 ft | 12 kts | 30° |
| 2026-04-29 21:14 | 13.92055 | 100.60718 | 26 ft | 4 kts | 1° |
| 2026-04-29 21:15 | 13.92083 | 100.60706 | 27 ft | 5 kts | 313° |
| 2026-04-29 21:15 | 13.92099 | 100.60680 | 28 ft | 3 kts | 300° |
| 2026-04-29 21:15 | 13.92114 | 100.60651 | 29 ft | 4 kts | 298° |
| 2026-04-29 21:15 | 13.92137 | 100.60608 | 30 ft | 9 kts | 297° |
| 2026-04-29 21:16 | 13.92169 | 100.60571 | 31 ft | 6 kts | 339° |
| 2026-04-29 21:16 | 13.92213 | 100.60561 | 31 ft | 6 kts | 349° |
| 2026-04-29 21:16 | 13.92243 | 100.60537 | 32 ft | 3 kts | 297° |
| 2026-04-29 21:16 | 13.92252 | 100.60519 | 32 ft | 2 kts | 297° |
| 2026-04-29 21:17 | 13.92257 | 100.60510 | 32 ft | 0 kts | 298° |
| 2026-04-29 21:17 | 13.92258 | 100.60507 | 33 ft | 0 kts | 299° |